Time;durP1;ratioP1;P1;durP2;ratioP2;P2;SDS_P1;SDS_P2;PMS_P1;PMS_P2;Temp;Humidity;BMP_temperature;BMP_pressure;BME280_temperature;BME280_humidity;BME280_pressure;Samples;Min_cycle;Max_cycle;Signal;HPM_P1;HPM_P2
2024/03/10 00:02:22;;;;;;;33.75;16.80;;;;;;;;;;5093961;28;20028;-57
2024/03/10 00:04:48;;;;;;;35.30;17.38;;;;;;;;;;5076430;28;20109;-60
2024/03/10 00:07:14;;;;;;;36.47;16.85;;;;;;;;;;5088740;28;20032;-59
2024/03/10 00:09:40;;;;;;;36.25;16.67;;;;;;;;;;5097316;28;20840;-57
2024/03/10 00:12:06;;;;;;;36.85;17.35;;;;;;;;;;5111344;28;20028;-58
2024/03/10 00:14:32;;;;;;;38.92;17.67;;;;;;;;;;5100418;28;20280;-59
2024/03/10 00:16:58;;;;;;;34.47;16.98;;;;;;;;;;5093702;28;20419;-59
2024/03/10 00:19:27;;;;;;;31.23;16.23;;;;;;;;;;5081098;28;20467;-55
2024/03/10 00:21:54;;;;;;;36.00;17.10;;;;;;;;;;5084962;28;20043;-57
2024/03/10 00:24:20;;;;;;;35.42;17.33;;;;;;;;;;5094059;28;20035;-58
2024/03/10 00:26:46;;;;;;;28.65;15.23;;;;;;;;;;5099887;28;20027;-57
2024/03/10 00:29:13;;;;;;;35.08;16.80;;;;;;;;;;5083857;28;20094;-57
2024/03/10 00:31:39;;;;;;;36.03;17.27;;;;;;;;;;5104470;28;20069;-58
2024/03/10 00:34:05;;;;;;;44.88;18.13;;;;;;;;;;5094223;28;20032;-59
2024/03/10 00:36:31;;;;;;;38.10;17.45;;;;;;;;;;5096125;28;20039;-59
2024/03/10 00:38:57;;;;;;;36.20;17.48;;;;;;;;;;5074295;28;20038;-57
2024/03/10 00:41:23;;;;;;;37.67;17.00;;;;;;;;;;5091475;28;20028;-59
2024/03/10 00:43:50;;;;;;;40.20;18.90;;;;;;;;;;5093301;28;20727;-57
2024/03/10 00:46:16;;;;;;;38.08;17.75;;;;;;;;;;5092831;28;20020;-59
2024/03/10 00:48:42;;;;;;;41.22;16.55;;;;;;;;;;5098816;28;20028;-54
2024/03/10 00:51:08;;;;;;;41.10;18.33;;;;;;;;;;5094729;28;20031;-55
2024/03/10 00:53:34;;;;;;;34.28;17.08;;;;;;;;;;5082466;28;20491;-54
2024/03/10 00:56:00;;;;;;;40.05;18.13;;;;;;;;;;5101710;28;20499;-54
2024/03/10 00:58:26;;;;;;;36.25;17.13;;;;;;;;;;5100617;28;20016;-53
2024/03/10 01:00:52;;;;;;;36.85;16.30;;;;;;;;;;5100412;28;20481;-57
2024/03/10 01:03:18;;;;;;;38.05;17.58;;;;;;;;;;5085497;28;20032;-54
2024/03/10 01:05:46;;;;;;;40.03;17.90;;;;;;;;;;5110425;28;20027;-53
2024/03/10 01:08:12;;;;;;;39.17;17.27;;;;;;;;;;5104879;28;20392;-53
2024/03/10 01:10:38;;;;;;;40.33;18.73;;;;;;;;;;5102484;28;20396;-54
2024/03/10 01:13:05;;;;;;;36.58;18.00;;;;;;;;;;5092506;28;20090;-53
2024/03/10 01:15:31;;;;;;;38.22;17.58;;;;;;;;;;5091096;28;20085;-53
2024/03/10 01:17:57;;;;;;;37.65;17.95;;;;;;;;;;5094596;28;20044;-52
2024/03/10 01:20:25;;;;;;;32.55;16.58;;;;;;;;;;5090751;28;20097;-54
2024/03/10 01:22:52;;;;;;;38.78;17.35;;;;;;;;;;5102674;28;20532;-55
2024/03/10 01:25:19;;;;;;;33.47;16.70;;;;;;;;;;5083507;28;20035;-54
2024/03/10 01:27:45;;;;;;;34.63;16.48;;;;;;;;;;5105855;28;20035;-54
2024/03/10 01:30:11;;;;;;;34.53;16.58;;;;;;;;;;5094216;28;20569;-55
2024/03/10 01:32:37;;;;;;;37.67;17.13;;;;;;;;;;5091247;28;20031;-53
2024/03/10 01:35:05;;;;;;;33.97;15.90;;;;;;;;;;5077995;28;20035;-55
2024/03/10 01:37:32;;;;;;;37.72;17.33;;;;;;;;;;5084361;28;20051;-55
2024/03/10 01:39:58;;;;;;;35.88;16.95;;;;;;;;;;5097962;28;20020;-53
2024/03/10 01:42:25;;;;;;;40.80;17.88;;;;;;;;;;5107506;28;20032;-53
2024/03/10 01:44:53;;;;;;;34.70;17.33;;;;;;;;;;5095048;28;20499;-53
2024/03/10 01:47:19;;;;;;;37.20;17.65;;;;;;;;;;5101194;28;20432;-55
2024/03/10 01:49:45;;;;;;;37.10;18.20;;;;;;;;;;5092625;28;20093;-54
2024/03/10 01:52:11;;;;;;;38.47;17.77;;;;;;;;;;5100799;28;20028;-53
2024/03/10 01:54:38;;;;;;;35.25;16.55;;;;;;;;;;5088242;28;20036;-54
2024/03/10 01:57:05;;;;;;;39.95;18.40;;;;;;;;;;5095472;28;20039;-53
2024/03/10 01:59:31;;;;;;;33.10;17.17;;;;;;;;;;5095169;28;20099;-53
2024/03/10 02:01:59;;;;;;;40.28;18.27;;;;;;;;;;5086833;28;20472;-56
2024/03/10 02:04:26;;;;;;;39.25;19.27;;;;;;;;;;5082934;28;20392;-57
2024/03/10 02:06:53;;;;;;;40.90;18.77;;;;;;;;;;5094929;28;20364;-53
2024/03/10 02:09:20;;;;;;;41.28;18.50;;;;;;;;;;5091986;28;20031;-55
2024/03/10 02:11:46;;;;;;;38.53;18.02;;;;;;;;;;5107712;28;20035;-53
2024/03/10 02:14:13;;;;;;;35.53;16.98;;;;;;;;;;5085648;28;20415;-57
2024/03/10 02:16:39;;;;;;;38.95;18.77;;;;;;;;;;5094031;28;20055;-56
2024/03/10 02:19:06;;;;;;;31.75;16.25;;;;;;;;;;5093213;28;20048;-55
2024/03/10 02:21:32;;;;;;;41.22;18.42;;;;;;;;;;5090677;28;20029;-56
2024/03/10 02:24:02;;;;;;;36.53;16.73;;;;;;;;;;5075928;28;20546;-55
2024/03/10 02:26:32;;;;;;;31.67;16.27;;;;;;;;;;5084714;28;20472;-57
2024/03/10 02:29:15;;;;;;;33.80;16.73;;;;;;;;;;5088864;28;20029;-56
2024/03/10 02:48:19;;;;;;;34.92;16.63;;;;;;;;;;5103101;28;20102;-56
2024/03/10 02:50:45;;;;;;;36.58;16.75;;;;;;;;;;5093756;28;20020;-55
2024/03/10 02:53:11;;;;;;;40.30;16.75;;;;;;;;;;5094567;28;20082;-56
2024/03/10 02:55:37;;;;;;;37.35;17.10;;;;;;;;;;5096048;28;20028;-55
2024/03/10 02:58:04;;;;;;;34.55;16.20;;;;;;;;;;5100725;28;20031;-55
2024/03/10 03:00:31;;;;;;;41.67;18.05;;;;;;;;;;5094417;28;20028;-55
2024/03/10 03:02:57;;;;;;;38.20;17.75;;;;;;;;;;5093447;28;20033;-55
2024/03/10 03:05:23;;;;;;;39.47;18.23;;;;;;;;;;5097929;28;20092;-55
2024/03/10 03:07:49;;;;;;;33.13;15.93;;;;;;;;;;5088681;28;20028;-55
2024/03/10 03:10:15;;;;;;;38.60;16.90;;;;;;;;;;5087477;28;20048;-55
2024/03/10 03:12:42;;;;;;;37.25;15.10;;;;;;;;;;5096982;28;20447;-56
2024/03/10 03:15:09;;;;;;;32.55;16.20;;;;;;;;;;5113391;28;20020;-55
2024/03/10 03:17:35;;;;;;;35.97;16.80;;;;;;;;;;5093015;28;20752;-55
2024/03/10 03:20:02;;;;;;;34.88;16.95;;;;;;;;;;5073137;28;20024;-55
2024/03/10 03:22:28;;;;;;;33.78;15.15;;;;;;;;;;5078064;28;20025;-55
2024/03/10 03:24:54;;;;;;;39.22;17.35;;;;;;;;;;5080680;28;20194;-55
2024/03/10 03:27:20;;;;;;;34.90;16.75;;;;;;;;;;5085205;28;20020;-55
2024/03/10 03:29:46;;;;;;;37.88;16.77;;;;;;;;;;5075248;28;20024;-55
2024/03/10 03:32:13;;;;;;;41.78;17.40;;;;;;;;;;5072713;28;20476;-55
2024/03/10 03:34:39;;;;;;;38.95;17.05;;;;;;;;;;5083075;28;20024;-55
2024/03/10 03:37:07;;;;;;;36.17;17.13;;;;;;;;;;5087505;28;20392;-55
2024/03/10 03:39:35;;;;;;;46.10;18.10;;;;;;;;;;5087818;28;20472;-55
2024/03/10 03:42:01;;;;;;;34.15;17.45;;;;;;;;;;5079666;28;20407;-56
2024/03/10 03:44:27;;;;;;;43.15;18.17;;;;;;;;;;5088846;28;20032;-55
2024/03/10 03:46:53;;;;;;;49.38;19.13;;;;;;;;;;5079169;28;20047;-55
2024/03/10 03:49:19;;;;;;;40.17;19.45;;;;;;;;;;5077082;28;20388;-55
2024/03/10 03:51:45;;;;;;;41.03;18.05;;;;;;;;;;5080939;28;20392;-55
2024/03/10 03:54:10;;;;;;;43.00;18.73;;;;;;;;;;5075353;28;20396;-56
2024/03/10 03:56:37;;;;;;;38.58;17.98;;;;;;;;;;5072508;28;20064;-55
2024/03/10 03:59:03;;;;;;;40.33;18.52;;;;;;;;;;5072282;28;20032;-54
2024/03/10 04:01:29;;;;;;;40.17;17.88;;;;;;;;;;5071851;28;20056;-56
2024/03/10 04:03:55;;;;;;;42.05;19.80;;;;;;;;;;5071779;28;20028;-55
2024/03/10 04:06:21;;;;;;;38.20;18.48;;;;;;;;;;5071688;28;20025;-55
2024/03/10 04:08:48;;;;;;;44.78;18.58;;;;;;;;;;5082990;28;20032;-55
2024/03/10 04:11:14;;;;;;;40.88;17.60;;;;;;;;;;5089168;28;20036;-54
2024/03/10 04:13:40;;;;;;;39.38;18.75;;;;;;;;;;5076652;28;20399;-54
2024/03/10 04:16:07;;;;;;;40.53;18.55;;;;;;;;;;5081121;28;20079;-55
2024/03/10 04:18:34;;;;;;;44.33;18.92;;;;;;;;;;5069777;28;20413;-58
2024/03/10 04:21:00;;;;;;;40.28;18.20;;;;;;;;;;5070930;28;20055;-58
2024/03/10 04:23:26;;;;;;;47.83;19.70;;;;;;;;;;5082987;28;20107;-59
2024/03/10 04:25:52;;;;;;;40.67;19.42;;;;;;;;;;5079998;28;20031;-58
2024/03/10 04:28:19;;;;;;;38.33;18.65;;;;;;;;;;5075767;28;20028;-58
2024/03/10 04:30:45;;;;;;;39.03;18.42;;;;;;;;;;5067330;28;20111;-58
2024/03/10 04:33:11;;;;;;;41.08;19.50;;;;;;;;;;5071949;28;20024;-58
2024/03/10 04:35:38;;;;;;;42.65;18.90;;;;;;;;;;5054511;28;20033;-59
2024/03/10 04:38:04;;;;;;;44.53;20.02;;;;;;;;;;5076399;28;20059;-58
2024/03/10 04:40:30;;;;;;;46.42;20.85;;;;;;;;;;5082527;28;20090;-58
2024/03/10 04:42:56;;;;;;;49.20;21.25;;;;;;;;;;5076538;28;20032;-58
2024/03/10 04:45:22;;;;;;;47.30;20.40;;;;;;;;;;5079630;28;20237;-58
2024/03/10 04:47:48;;;;;;;48.50;21.70;;;;;;;;;;5076434;28;20039;-58
2024/03/10 04:50:14;;;;;;;46.90;20.50;;;;;;;;;;5070195;28;20400;-58
2024/03/10 04:52:41;;;;;;;44.20;20.17;;;;;;;;;;5077792;28;20439;-58
2024/03/10 04:55:08;;;;;;;47.08;22.00;;;;;;;;;;5086966;28;20032;-58
2024/03/10 04:57:34;;;;;;;49.10;20.55;;;;;;;;;;5087764;28;20035;-59
2024/03/10 05:00:01;;;;;;;49.92;21.25;;;;;;;;;;5075936;28;20035;-59
2024/03/10 05:02:26;;;;;;;44.28;20.13;;;;;;;;;;5071842;28;20040;-58
2024/03/10 05:04:52;;;;;;;47.00;20.67;;;;;;;;;;5065960;28;20029;-59
2024/03/10 05:07:18;;;;;;;52.33;21.65;;;;;;;;;;5074624;28;20024;-60
2024/03/10 05:09:44;;;;;;;50.42;21.30;;;;;;;;;;5075706;28;20024;-58
2024/03/10 05:12:12;;;;;;;55.83;23.75;;;;;;;;;;5079775;28;20468;-58
2024/03/10 05:14:39;;;;;;;49.50;22.27;;;;;;;;;;5070980;28;20028;-58
2024/03/10 05:17:05;;;;;;;52.85;23.80;;;;;;;;;;5071116;28;20032;-59
2024/03/10 05:19:31;;;;;;;46.63;22.55;;;;;;;;;;5079450;28;20040;-58
2024/03/10 05:21:56;;;;;;;51.80;22.95;;;;;;;;;;5091377;28;20058;-58
2024/03/10 05:24:23;;;;;;;54.78;22.10;;;;;;;;;;5082632;28;20028;-58
2024/03/10 05:26:49;;;;;;;53.35;23.17;;;;;;;;;;5080640;28;20031;-55
2024/03/10 05:29:15;;;;;;;57.50;24.02;;;;;;;;;;5082761;28;20028;-53
2024/03/10 05:31:43;;;;;;;55.53;24.02;;;;;;;;;;5090481;28;20074;-54
2024/03/10 05:34:10;;;;;;;53.58;22.90;;;;;;;;;;5090318;28;20444;-54
2024/03/10 05:36:36;;;;;;;52.65;24.17;;;;;;;;;;5071121;28;20114;-55
2024/03/10 05:39:02;;;;;;;53.13;23.23;;;;;;;;;;5089867;28;20024;-53
2024/03/10 05:41:28;;;;;;;47.40;21.30;;;;;;;;;;5089724;28;20027;-54
2024/03/10 05:43:54;;;;;;;48.03;22.02;;;;;;;;;;5091623;28;20166;-52
2024/03/10 05:46:20;;;;;;;46.53;21.40;;;;;;;;;;5090742;28;20032;-54
2024/03/10 05:48:47;;;;;;;54.92;23.75;;;;;;;;;;5090244;28;20036;-54
2024/03/10 05:51:13;;;;;;;61.10;23.08;;;;;;;;;;5095200;28;20027;-55
2024/03/10 05:53:39;;;;;;;54.42;23.75;;;;;;;;;;5088018;28;20032;-53
2024/03/10 05:56:07;;;;;;;55.80;24.27;;;;;;;;;;5090858;28;20028;-55
2024/03/10 05:58:34;;;;;;;52.15;22.85;;;;;;;;;;5090228;28;20111;-51
2024/03/10 06:01:00;;;;;;;60.72;24.38;;;;;;;;;;5091152;28;20078;-52
2024/03/10 06:03:26;;;;;;;53.08;24.00;;;;;;;;;;5089608;28;20114;-55
2024/03/10 06:05:52;;;;;;;56.47;23.52;;;;;;;;;;5088072;28;20043;-54
2024/03/10 06:08:18;;;;;;;52.78;23.80;;;;;;;;;;5085819;28;20472;-53
2024/03/10 06:10:44;;;;;;;55.08;23.08;;;;;;;;;;5089881;28;20415;-55
2024/03/10 06:13:10;;;;;;;54.08;22.48;;;;;;;;;;5093299;28;20389;-54
2024/03/10 06:15:36;;;;;;;49.25;22.60;;;;;;;;;;5089959;28;20024;-55
2024/03/10 06:18:05;;;;;;;50.22;22.25;;;;;;;;;;5084256;28;20052;-53
2024/03/10 06:26:20;;;;;;;54.22;23.58;;;;;;;;;;4996226;28;20046;-54
2024/03/10 06:28:47;;;;;;;53.38;23.17;;;;;;;;;;5057956;28;20036;-54
2024/03/10 06:31:13;;;;;;;55.97;21.98;;;;;;;;;;5078923;28;20096;-53
2024/03/10 06:33:39;;;;;;;52.92;22.88;;;;;;;;;;5080726;28;20038;-54
2024/03/10 06:36:08;;;;;;;48.65;23.15;;;;;;;;;;5075246;28;20051;-51
2024/03/10 06:38:41;;;;;;;52.05;22.45;;;;;;;;;;5073856;28;20051;-55
2024/03/10 06:41:07;;;;;;;50.08;23.05;;;;;;;;;;5074197;28;20032;-54
2024/03/10 06:43:33;;;;;;;56.72;23.08;;;;;;;;;;5079906;28;20020;-56
2024/03/10 06:46:00;;;;;;;55.45;23.02;;;;;;;;;;5057197;28;20530;-55
2024/03/10 06:48:26;;;;;;;51.45;22.35;;;;;;;;;;5072918;28;20443;-55
2024/03/10 06:50:52;;;;;;;50.83;22.58;;;;;;;;;;5079544;28;20111;-55
2024/03/10 06:53:18;;;;;;;48.30;21.08;;;;;;;;;;5073232;28;20455;-56
2024/03/10 06:55:44;;;;;;;48.30;22.98;;;;;;;;;;5082215;28;20091;-55
2024/03/10 06:58:11;;;;;;;53.22;23.05;;;;;;;;;;5077251;28;20028;-55
2024/03/10 07:00:39;;;;;;;47.25;22.15;;;;;;;;;;5076907;28;20420;-55
2024/03/10 07:03:05;;;;;;;47.97;22.48;;;;;;;;;;5073166;28;20028;-56
2024/03/10 07:05:33;;;;;;;54.45;22.70;;;;;;;;;;5081003;28;20032;-54
2024/03/10 07:08:00;;;;;;;47.40;21.42;;;;;;;;;;5078256;28;20029;-56
2024/03/10 07:10:27;;;;;;;52.05;22.38;;;;;;;;;;5081450;28;20163;-55
2024/03/10 07:12:53;;;;;;;51.42;24.75;;;;;;;;;;5079679;28;20036;-55
2024/03/10 07:15:19;;;;;;;45.95;21.80;;;;;;;;;;5087344;28;20031;-53
2024/03/10 07:17:45;;;;;;;48.60;21.88;;;;;;;;;;5079663;28;20114;-56
2024/03/10 07:20:11;;;;;;;50.25;22.60;;;;;;;;;;5071980;28;20036;-56
2024/03/10 07:22:38;;;;;;;52.65;25.05;;;;;;;;;;5079007;28;20020;-56
2024/03/10 07:25:08;;;;;;;56.15;31.67;;;;;;;;;;5076255;28;20023;-55
2024/03/10 07:27:34;;;;;;;50.38;23.15;;;;;;;;;;5074418;28;20514;-56
2024/03/10 07:30:04;;;;;;;57.78;26.98;;;;;;;;;;5072089;28;20103;-54
2024/03/10 07:32:30;;;;;;;58.72;26.67;;;;;;;;;;5081396;28;20336;-56
2024/03/10 07:34:56;;;;;;;58.17;27.67;;;;;;;;;;5070915;28;20029;-55
2024/03/10 07:37:22;;;;;;;50.03;23.60;;;;;;;;;;5074739;28;20103;-55
2024/03/10 07:39:48;;;;;;;47.45;22.63;;;;;;;;;;5078682;28;20055;-54
2024/03/10 07:42:15;;;;;;;50.40;22.50;;;;;;;;;;5078359;28;20475;-55
2024/03/10 07:44:41;;;;;;;46.35;21.40;;;;;;;;;;5076157;28;20488;-55
2024/03/10 07:47:07;;;;;;;53.72;23.83;;;;;;;;;;5074839;28;20075;-58
2024/03/10 07:49:33;;;;;;;47.83;20.45;;;;;;;;;;5073359;28;20407;-58
2024/03/10 07:51:59;;;;;;;47.17;23.23;;;;;;;;;;5075220;28;20237;-58
2024/03/10 07:54:25;;;;;;;47.58;20.25;;;;;;;;;;5067789;28;20033;-58
2024/03/10 07:56:53;;;;;;;46.22;20.48;;;;;;;;;;5074800;28;20425;-58
2024/03/10 07:59:21;;;;;;;48.67;21.63;;;;;;;;;;5079580;28;20097;-58
2024/03/10 08:01:49;;;;;;;43.58;20.45;;;;;;;;;;5072609;28;20028;-59
2024/03/10 08:04:15;;;;;;;40.83;19.92;;;;;;;;;;5075185;28;20597;-58
2024/03/10 08:06:41;;;;;;;43.33;19.95;;;;;;;;;;5054084;28;20024;-58
2024/03/10 08:09:07;;;;;;;38.80;18.73;;;;;;;;;;5072926;28;20495;-58
2024/03/10 08:11:33;;;;;;;43.92;19.92;;;;;;;;;;5073684;28;20032;-58
2024/03/10 08:13:59;;;;;;;41.80;19.73;;;;;;;;;;5072011;28;20027;-57
2024/03/10 08:16:25;;;;;;;38.08;17.95;;;;;;;;;;5082762;28;20032;-59
2024/03/10 08:18:51;;;;;;;40.10;19.15;;;;;;;;;;5071006;28;20053;-59
2024/03/10 08:21:18;;;;;;;39.15;19.65;;;;;;;;;;5072069;28;20122;-58
2024/03/10 08:23:44;;;;;;;41.17;18.77;;;;;;;;;;5068678;28;20436;-59
2024/03/10 08:26:10;;;;;;;37.65;17.33;;;;;;;;;;5066560;28;20032;-59
2024/03/10 08:28:36;;;;;;;36.60;18.25;;;;;;;;;;5068960;28;20028;-56
2024/03/10 08:31:04;;;;;;;34.95;16.58;;;;;;;;;;5072796;28;20035;-59
2024/03/10 08:33:30;;;;;;;34.92;16.88;;;;;;;;;;5074338;28;20031;-59
2024/03/10 08:35:56;;;;;;;33.63;17.27;;;;;;;;;;5072644;28;20036;-59
2024/03/10 08:38:26;;;;;;;36.22;17.98;;;;;;;;;;5070872;28;20117;-58
2024/03/10 08:40:53;;;;;;;37.13;17.20;;;;;;;;;;5074124;28;20020;-59
2024/03/10 08:43:18;;;;;;;38.50;16.85;;;;;;;;;;5061921;28;20029;-60
2024/03/10 08:45:44;;;;;;;32.38;16.88;;;;;;;;;;5067113;28;20114;-58
2024/03/10 08:48:10;;;;;;;34.83;16.05;;;;;;;;;;5077694;28;20020;-59
2024/03/10 08:50:37;;;;;;;25.50;14.57;;;;;;;;;;5078704;28;20113;-59
2024/03/10 08:53:04;;;;;;;35.42;16.58;;;;;;;;;;5071550;28;20097;-59
2024/03/10 08:55:30;;;;;;;33.50;16.42;;;;;;;;;;5081070;28;20028;-58
2024/03/10 08:57:56;;;;;;;33.00;16.48;;;;;;;;;;5072543;28;20098;-58
2024/03/10 09:00:22;;;;;;;31.30;15.80;;;;;;;;;;5074036;28;20028;-59
2024/03/10 09:02:49;;;;;;;33.40;16.48;;;;;;;;;;5066223;28;20917;-59
2024/03/10 09:05:15;;;;;;;32.15;16.60;;;;;;;;;;5082863;28;20048;-59
2024/03/10 09:07:42;;;;;;;27.58;14.77;;;;;;;;;;5069730;28;20162;-59
2024/03/10 09:10:09;;;;;;;32.05;16.77;;;;;;;;;;5079212;28;20020;-58
2024/03/10 09:12:35;;;;;;;31.30;15.63;;;;;;;;;;5067625;28;20048;-59
2024/03/10 09:15:01;;;;;;;30.85;15.35;;;;;;;;;;5077569;28;20101;-59
2024/03/10 09:17:27;;;;;;;29.10;15.70;;;;;;;;;;5075586;28;20507;-59
2024/03/10 09:19:53;;;;;;;27.95;14.68;;;;;;;;;;5062435;28;20036;-59
2024/03/10 09:22:19;;;;;;;31.33;15.50;;;;;;;;;;5069832;28;20036;-59
2024/03/10 09:24:48;;;;;;;28.95;15.43;;;;;;;;;;5069582;28;20052;-60
2024/03/10 09:27:14;;;;;;;28.50;15.10;;;;;;;;;;5067289;28;20488;-59
2024/03/10 09:29:40;;;;;;;30.02;15.00;;;;;;;;;;5069558;28;20028;-59
2024/03/10 09:32:06;;;;;;;27.58;14.82;;;;;;;;;;5078917;28;20565;-59
2024/03/10 09:34:36;;;;;;;26.23;14.18;;;;;;;;;;5079767;28;20028;-59
2024/03/10 09:37:02;;;;;;;28.17;15.45;;;;;;;;;;5069139;28;20511;-58
2024/03/10 09:39:28;;;;;;;32.58;14.40;;;;;;;;;;5072240;28;20056;-59
2024/03/10 09:41:54;;;;;;;28.80;14.77;;;;;;;;;;5067492;28;20051;-59
2024/03/10 09:44:20;;;;;;;26.60;14.02;;;;;;;;;;5072902;28;20017;-59
2024/03/10 09:46:50;;;;;;;30.27;14.70;;;;;;;;;;5071202;28;20112;-59
2024/03/10 09:49:20;;;;;;;30.25;14.18;;;;;;;;;;5072050;28;20017;-59
2024/03/10 09:51:49;;;;;;;23.13;12.98;;;;;;;;;;5069866;28;20027;-59
2024/03/10 09:54:19;;;;;;;26.30;14.43;;;;;;;;;;5069553;28;20028;-59
2024/03/10 09:56:46;;;;;;;29.33;15.00;;;;;;;;;;5060298;28;20020;-59
2024/03/10 09:59:17;;;;;;;23.00;12.68;;;;;;;;;;5067917;28;20384;-59
2024/03/10 10:01:43;;;;;;;26.33;13.85;;;;;;;;;;5072115;28;20028;-59
2024/03/10 10:04:10;;;;;;;24.60;13.38;;;;;;;;;;5076697;28;20024;-59
2024/03/10 10:06:37;;;;;;;28.00;13.60;;;;;;;;;;5076097;28;20025;-58
2024/03/10 10:09:07;;;;;;;24.60;12.10;;;;;;;;;;5078715;28;20066;-56
2024/03/10 10:11:34;;;;;;;22.60;12.40;;;;;;;;;;5073413;28;20020;-57
2024/03/10 10:14:06;;;;;;;25.20;13.60;;;;;;;;;;5073252;28;20033;-57
2024/03/10 10:16:32;;;;;;;26.73;12.88;;;;;;;;;;5076292;28;20031;-56
2024/03/10 10:18:59;;;;;;;23.13;13.02;;;;;;;;;;5078675;28;20131;-57
2024/03/10 10:21:28;;;;;;;25.23;13.65;;;;;;;;;;5072890;28;20033;-56
2024/03/10 10:23:56;;;;;;;24.15;13.75;;;;;;;;;;5068086;28;20076;-56
2024/03/10 10:26:22;;;;;;;24.58;13.13;;;;;;;;;;5073611;28;20082;-56
2024/03/10 10:29:02;;;;;;;23.88;12.68;;;;;;;;;;5068554;28;20090;-57
2024/03/10 10:31:28;;;;;;;22.50;12.40;;;;;;;;;;5074545;28;20021;-57
2024/03/10 10:33:54;;;;;;;23.90;13.40;;;;;;;;;;5072944;28;20040;-57
2024/03/10 10:36:21;;;;;;;23.55;13.02;;;;;;;;;;5074703;28;20471;-56
2024/03/10 10:38:49;;;;;;;25.42;13.13;;;;;;;;;;5076066;28;20031;-56
2024/03/10 10:41:15;;;;;;;25.73;12.93;;;;;;;;;;5070122;28;20020;-56
2024/03/10 10:43:44;;;;;;;27.77;13.85;;;;;;;;;;5072245;28;20031;-56
2024/03/10 10:46:11;;;;;;;20.30;12.60;;;;;;;;;;5070815;28;20103;-56
2024/03/10 10:48:37;;;;;;;22.08;12.10;;;;;;;;;;5076317;28;20031;-56
2024/03/10 10:51:07;;;;;;;22.95;12.80;;;;;;;;;;5064534;28;20446;-57
2024/03/10 10:53:41;;;;;;;23.67;13.48;;;;;;;;;;5065524;28;20055;-56
2024/03/10 10:56:08;;;;;;;24.73;13.65;;;;;;;;;;5069197;28;20450;-56
2024/03/10 10:58:34;;;;;;;20.25;12.23;;;;;;;;;;5066876;28;20024;-57
2024/03/10 11:01:04;;;;;;;25.40;13.63;;;;;;;;;;5067643;28;20036;-57
2024/03/10 11:03:32;;;;;;;23.42;13.07;;;;;;;;;;5072153;28;20028;-57
2024/03/10 11:06:01;;;;;;;24.83;13.73;;;;;;;;;;5073622;28;20034;-57
2024/03/10 11:08:28;;;;;;;24.20;14.10;;;;;;;;;;5066976;28;20782;-64
2024/03/10 11:10:55;;;;;;;23.33;13.50;;;;;;;;;;5067890;28;20167;-56
2024/03/10 11:13:22;;;;;;;25.60;13.30;;;;;;;;;;5072975;28;20036;-57
2024/03/10 11:16:03;;;;;;;25.45;13.13;;;;;;;;;;5070637;28;20106;-57
2024/03/10 11:18:29;;;;;;;28.13;12.68;;;;;;;;;;5076341;28;20182;-56
2024/03/10 11:20:56;;;;;;;26.42;14.43;;;;;;;;;;5095894;28;20146;-55
2024/03/10 11:23:22;;;;;;;26.73;13.30;;;;;;;;;;5090714;28;20080;-54
2024/03/10 11:25:50;;;;;;;25.08;13.10;;;;;;;;;;5093278;28;20040;-55
2024/03/10 11:28:19;;;;;;;23.40;12.00;;;;;;;;;;5090008;28;20408;-54
2024/03/10 11:30:45;;;;;;;22.13;11.75;;;;;;;;;;5090933;28;20020;-56
2024/03/10 11:33:13;;;;;;;26.52;13.43;;;;;;;;;;5088776;28;20028;-58
2024/03/10 11:35:39;;;;;;;22.58;12.30;;;;;;;;;;5090902;28;20032;-55
2024/03/10 11:38:09;;;;;;;26.60;12.80;;;;;;;;;;5090687;28;20028;-55
2024/03/10 11:40:35;;;;;;;21.33;12.15;;;;;;;;;;5091544;28;20028;-54
2024/03/10 11:43:01;;;;;;;22.73;12.20;;;;;;;;;;5089941;28;20060;-56
2024/03/10 11:45:29;;;;;;;23.50;12.77;;;;;;;;;;5090051;28;20044;-54
2024/03/10 11:47:55;;;;;;;29.17;14.18;;;;;;;;;;5089816;28;20028;-54
2024/03/10 11:50:20;;;;;;;23.08;12.80;;;;;;;;;;5091404;28;20443;-54
2024/03/10 11:52:48;;;;;;;24.33;13.52;;;;;;;;;;5091141;28;20103;-55
2024/03/10 11:55:18;;;;;;;25.67;12.68;;;;;;;;;;5092236;28;20047;-54
2024/03/10 11:57:44;;;;;;;25.67;13.38;;;;;;;;;;5100634;28;21637;-55
2024/03/10 12:00:14;;;;;;;23.10;13.70;;;;;;;;;;5096995;28;20475;-56
2024/03/10 12:02:40;;;;;;;23.67;12.40;;;;;;;;;;5099364;28;20088;-55
2024/03/10 12:05:08;;;;;;;21.70;12.88;;;;;;;;;;5090763;28;20111;-55
2024/03/10 12:07:35;;;;;;;24.55;13.98;;;;;;;;;;5091199;28;20031;-55
2024/03/10 12:10:08;;;;;;;24.17;13.05;;;;;;;;;;5098587;28;20581;-54
2024/03/10 12:12:35;;;;;;;26.20;15.07;;;;;;;;;;5084183;28;20024;-54
2024/03/10 12:15:01;;;;;;;25.73;14.80;;;;;;;;;;5087430;28;20028;-54
2024/03/10 12:17:28;;;;;;;26.77;13.65;;;;;;;;;;5090102;28;20115;-54
2024/03/10 12:19:54;;;;;;;26.70;14.38;;;;;;;;;;5092280;28;20105;-54
2024/03/10 12:22:20;;;;;;;26.38;15.30;;;;;;;;;;5086565;28;20499;-55
2024/03/10 12:24:46;;;;;;;28.67;15.05;;;;;;;;;;5090731;28;20039;-55
2024/03/10 12:27:13;;;;;;;32.40;15.93;;;;;;;;;;5091410;28;20025;-59
2024/03/10 12:29:45;;;;;;;25.58;13.70;;;;;;;;;;5088660;28;20035;-59
2024/03/10 12:32:13;;;;;;;27.27;14.13;;;;;;;;;;5089241;28;20382;-59
2024/03/10 12:34:39;;;;;;;22.98;13.95;;;;;;;;;;5086973;28;20038;-60
2024/03/10 12:37:05;;;;;;;27.85;12.98;;;;;;;;;;5082327;28;20028;-58
2024/03/10 12:39:32;;;;;;;23.17;12.93;;;;;;;;;;5088532;28;20035;-57
2024/03/10 12:41:58;;;;;;;23.92;12.50;;;;;;;;;;5090527;28;20408;-57
2024/03/10 12:44:24;;;;;;;23.73;12.18;;;;;;;;;;5087181;28;20027;-58
2024/03/10 12:46:50;;;;;;;23.10;12.00;;;;;;;;;;5091525;28;20118;-58
2024/03/10 12:49:16;;;;;;;20.27;11.95;;;;;;;;;;5099003;28;20084;-59
2024/03/10 12:51:42;;;;;;;24.10;12.32;;;;;;;;;;5090301;28;20024;-59
2024/03/10 12:54:09;;;;;;;23.15;11.43;;;;;;;;;;5091709;28;20074;-58
2024/03/10 12:56:35;;;;;;;22.95;12.63;;;;;;;;;;5090530;28;20562;-57
2024/03/10 12:59:02;;;;;;;20.90;11.32;;;;;;;;;;5089944;28;20031;-59
2024/03/10 13:01:31;;;;;;;23.67;11.77;;;;;;;;;;5090194;28;20040;-58
2024/03/10 13:03:57;;;;;;;22.67;13.10;;;;;;;;;;5090445;28;20090;-58
2024/03/10 13:06:24;;;;;;;21.00;11.60;;;;;;;;;;5091121;28;20111;-59
2024/03/10 13:08:50;;;;;;;23.95;12.60;;;;;;;;;;5084104;28;20032;-59
2024/03/10 13:11:17;;;;;;;25.95;13.30;;;;;;;;;;5083934;28;20069;-59
2024/03/10 13:13:43;;;;;;;25.38;13.70;;;;;;;;;;5089621;28;20111;-58
2024/03/10 13:16:09;;;;;;;20.77;11.55;;;;;;;;;;5089576;28;20024;-58
2024/03/10 13:18:35;;;;;;;26.13;12.50;;;;;;;;;;5080429;28;20112;-58
2024/03/10 13:21:02;;;;;;;25.38;12.50;;;;;;;;;;5071057;28;20551;-59
2024/03/10 13:23:28;;;;;;;25.23;12.57;;;;;;;;;;5068065;28;20025;-59
2024/03/10 13:25:54;;;;;;;22.60;12.98;;;;;;;;;;5067642;28;20119;-59
2024/03/10 13:28:22;;;;;;;26.98;13.00;;;;;;;;;;5067570;28;20036;-59
2024/03/10 13:30:49;;;;;;;23.45;11.88;;;;;;;;;;5068448;28;20075;-57
2024/03/10 13:33:15;;;;;;;22.88;12.50;;;;;;;;;;5074587;28;20424;-58
2024/03/10 13:35:41;;;;;;;21.90;12.02;;;;;;;;;;5077087;28;20112;-55
2024/03/10 13:38:07;;;;;;;21.17;10.93;;;;;;;;;;5076193;28;20027;-59
2024/03/10 13:40:33;;;;;;;22.95;12.60;;;;;;;;;;5074741;28;20025;-58
2024/03/10 13:42:59;;;;;;;25.48;12.88;;;;;;;;;;5074440;28;20122;-59
2024/03/10 13:45:25;;;;;;;23.17;11.95;;;;;;;;;;5072521;28;20496;-58
2024/03/10 13:47:51;;;;;;;24.90;11.43;;;;;;;;;;5070649;28;21973;-55
2024/03/10 13:50:19;;;;;;;22.20;11.32;;;;;;;;;;5071132;28;20490;-56
2024/03/10 13:52:45;;;;;;;25.75;12.95;;;;;;;;;;5082979;28;20104;-56
2024/03/10 13:55:12;;;;;;;19.98;11.95;;;;;;;;;;5076829;28;20039;-54
2024/03/10 13:57:43;;;;;;;26.60;13.10;;;;;;;;;;5081066;28;20476;-55
2024/03/10 14:00:13;;;;;;;20.83;11.25;;;;;;;;;;5076885;28;20612;-55
2024/03/10 14:02:41;;;;;;;25.10;12.55;;;;;;;;;;5073332;28;20037;-56
2024/03/10 14:05:07;;;;;;;22.15;11.15;;;;;;;;;;5074241;28;20039;-55
2024/03/10 14:07:33;;;;;;;21.30;10.73;;;;;;;;;;5074618;28;20120;-54
2024/03/10 14:09:59;;;;;;;19.70;9.95;;;;;;;;;;5071827;28;20494;-53
2024/03/10 14:12:25;;;;;;;22.55;11.68;;;;;;;;;;5072378;28;20029;-56
2024/03/10 14:14:51;;;;;;;22.73;11.05;;;;;;;;;;5073298;28;20048;-55
2024/03/10 14:17:19;;;;;;;19.77;10.60;;;;;;;;;;5069639;28;20043;-55
2024/03/10 14:19:45;;;;;;;16.95;10.05;;;;;;;;;;5095643;28;20471;-54
2024/03/10 14:22:11;;;;;;;21.42;10.80;;;;;;;;;;5095760;28;20028;-52
2024/03/10 14:24:40;;;;;;;17.00;9.50;;;;;;;;;;5093187;28;20028;-54
2024/03/10 14:27:06;;;;;;;18.13;9.90;;;;;;;;;;5092679;28;20907;-56
2024/03/10 14:29:33;;;;;;;14.95;9.05;;;;;;;;;;5091136;28;20590;-56
2024/03/10 14:31:59;;;;;;;17.50;9.50;;;;;;;;;;5093610;28;20103;-56
2024/03/10 14:34:25;;;;;;;17.05;9.65;;;;;;;;;;5097212;28;20669;-54
2024/03/10 14:36:52;;;;;;;22.08;9.75;;;;;;;;;;5094942;28;20080;-55